sensor_id;sensor_type;location;lat;lon;timestamp;temperature;humidity
67799;SHT30;54596;43.216;27.904;2022-11-11T00:00:31;9.28;91.10
67799;SHT30;54596;43.216;27.904;2022-11-11T00:02:57;9.24;91.07
67799;SHT30;54596;43.216;27.904;2022-11-11T00:05:23;9.21;91.05
67799;SHT30;54596;43.216;27.904;2022-11-11T00:07:51;9.17;91.06
67799;SHT30;54596;43.216;27.904;2022-11-11T00:10:17;9.18;91.07
67799;SHT30;54596;43.216;27.904;2022-11-11T00:12:42;9.16;91.16
67799;SHT30;54596;43.216;27.904;2022-11-11T00:15:08;9.16;90.98
67799;SHT30;54596;43.216;27.904;2022-11-11T00:17:33;9.16;90.98
67799;SHT30;54596;43.216;27.904;2022-11-11T00:20:18;9.13;90.88
67799;SHT30;54596;43.216;27.904;2022-11-11T00:23:02;9.11;90.72
67799;SHT30;54596;43.216;27.904;2022-11-11T00:25:51;9.11;90.68
67799;SHT30;54596;43.216;27.904;2022-11-11T00:28:17;9.10;90.88
67799;SHT30;54596;43.216;27.904;2022-11-11T00:30:43;9.08;90.84
67799;SHT30;54596;43.216;27.904;2022-11-11T00:33:08;9.06;90.84
67799;SHT30;54596;43.216;27.904;2022-11-11T00:35:33;9.04;90.80
67799;SHT30;54596;43.216;27.904;2022-11-11T00:38:17;9.04;90.75
67799;SHT30;54596;43.216;27.904;2022-11-11T00:41:02;8.97;90.78
67799;SHT30;54596;43.216;27.904;2022-11-11T00:43:27;8.87;90.97
67799;SHT30;54596;43.216;27.904;2022-11-11T00:45:53;8.83;90.83
67799;SHT30;54596;43.216;27.904;2022-11-11T00:48:39;8.84;90.73
67799;SHT30;54596;43.216;27.904;2022-11-11T00:51:23;8.77;90.79
67799;SHT30;54596;43.216;27.904;2022-11-11T00:53:49;8.77;90.85
67799;SHT30;54596;43.216;27.904;2022-11-11T00:56:14;8.72;91.09
67799;SHT30;54596;43.216;27.904;2022-11-11T00:58:39;8.75;91.16
67799;SHT30;54596;43.216;27.904;2022-11-11T01:01:05;8.68;91.23
67799;SHT30;54596;43.216;27.904;2022-11-11T01:03:30;8.73;91.04
67799;SHT30;54596;43.216;27.904;2022-11-11T01:05:59;8.71;91.16
67799;SHT30;54596;43.216;27.904;2022-11-11T01:08:25;8.69;91.12
67799;SHT30;54596;43.216;27.904;2022-11-11T01:10:50;8.69;91.27
67799;SHT30;54596;43.216;27.904;2022-11-11T01:13:31;8.71;91.29
67799;SHT30;54596;43.216;27.904;2022-11-11T01:16:05;8.68;91.18
67799;SHT30;54596;43.216;27.904;2022-11-11T01:18:31;8.65;91.12
67799;SHT30;54596;43.216;27.904;2022-11-11T01:21:10;8.62;91.12
67799;SHT30;54596;43.216;27.904;2022-11-11T01:23:38;8.59;90.95
67799;SHT30;54596;43.216;27.904;2022-11-11T01:26:12;8.54;90.87
67799;SHT30;54596;43.216;27.904;2022-11-11T01:28:38;8.47;90.91
67799;SHT30;54596;43.216;27.904;2022-11-11T01:31:06;8.48;90.66
67799;SHT30;54596;43.216;27.904;2022-11-11T01:33:32;8.48;90.66
67799;SHT30;54596;43.216;27.904;2022-11-11T01:36:09;8.54;90.40
67799;SHT30;54596;43.216;27.904;2022-11-11T01:38:36;8.52;90.86
67799;SHT30;54596;43.216;27.904;2022-11-11T01:41:03;8.47;91.08
67799;SHT30;54596;43.216;27.904;2022-11-11T01:43:49;8.55;90.98
67799;SHT30;54596;43.216;27.904;2022-11-11T01:46:25;8.54;91.14
67799;SHT30;54596;43.216;27.904;2022-11-11T01:48:55;8.47;91.34
67799;SHT30;54596;43.216;27.904;2022-11-11T01:59:49;8.40;91.03
67799;SHT30;54596;43.216;27.904;2022-11-11T02:05:02;8.28;90.59
67799;SHT30;54596;43.216;27.904;2022-11-11T02:07:47;8.30;90.60
67799;SHT30;54596;43.216;27.904;2022-11-11T02:10:13;8.27;90.58
67799;SHT30;54596;43.216;27.904;2022-11-11T02:12:39;8.23;90.64
67799;SHT30;54596;43.216;27.904;2022-11-11T02:15:23;8.19;90.82
67799;SHT30;54596;43.216;27.904;2022-11-11T02:17:49;8.20;90.94
67799;SHT30;54596;43.216;27.904;2022-11-11T02:20:19;8.19;90.89
67799;SHT30;54596;43.216;27.904;2022-11-11T02:25:39;8.10;91.06
67799;SHT30;54596;43.216;27.904;2022-11-11T02:28:06;8.06;91.22
67799;SHT30;54596;43.216;27.904;2022-11-11T02:30:32;7.96;91.62
67799;SHT30;54596;43.216;27.904;2022-11-11T02:32:58;8.00;91.72
67799;SHT30;54596;43.216;27.904;2022-11-11T02:35:28;7.92;92.13
67799;SHT30;54596;43.216;27.904;2022-11-11T02:37:54;7.90;92.40
67799;SHT30;54596;43.216;27.904;2022-11-11T02:40:28;7.92;92.53
67799;SHT30;54596;43.216;27.904;2022-11-11T02:42:55;7.94;92.66
67799;SHT30;54596;43.216;27.904;2022-11-11T02:45:20;7.87;92.94
67799;SHT30;54596;43.216;27.904;2022-11-11T02:47:46;7.90;92.89
67799;SHT30;54596;43.216;27.904;2022-11-11T02:50:11;7.92;93.03
67799;SHT30;54596;43.216;27.904;2022-11-11T02:52:37;7.93;93.05
67799;SHT30;54596;43.216;27.904;2022-11-11T02:55:03;7.99;93.05
67799;SHT30;54596;43.216;27.904;2022-11-11T02:57:29;7.99;93.05
67799;SHT30;54596;43.216;27.904;2022-11-11T02:59:57;8.00;93.15
67799;SHT30;54596;43.216;27.904;2022-11-11T03:02:23;7.92;93.73
67799;SHT30;54596;43.216;27.904;2022-11-11T03:04:55;7.92;93.86
67799;SHT30;54596;43.216;27.904;2022-11-11T03:07:21;7.90;93.91
67799;SHT30;54596;43.216;27.904;2022-11-11T03:09:47;7.92;93.79
67799;SHT30;54596;43.216;27.904;2022-11-11T03:12:13;7.94;93.52
67799;SHT30;54596;43.216;27.904;2022-11-11T03:14:39;7.92;93.35
67799;SHT30;54596;43.216;27.904;2022-11-11T03:17:04;7.94;93.24
67799;SHT30;54596;43.216;27.904;2022-11-11T03:19:48;7.90;93.15
67799;SHT30;54596;43.216;27.904;2022-11-11T03:22:14;7.90;93.09
67799;SHT30;54596;43.216;27.904;2022-11-11T03:24:39;7.90;92.94
67799;SHT30;54596;43.216;27.904;2022-11-11T03:27:23;7.92;92.95
67799;SHT30;54596;43.216;27.904;2022-11-11T03:29:49;7.92;92.98
67799;SHT30;54596;43.216;27.904;2022-11-11T03:32:14;7.87;93.08
67799;SHT30;54596;43.216;27.904;2022-11-11T03:34:40;7.92;92.92
67799;SHT30;54596;43.216;27.904;2022-11-11T03:37:08;7.99;92.88
67799;SHT30;54596;43.216;27.904;2022-11-11T03:39:52;8.06;92.98
67799;SHT30;54596;43.216;27.904;2022-11-11T03:42:18;8.06;92.61
67799;SHT30;54596;43.216;27.904;2022-11-11T03:44:43;8.07;92.64
67799;SHT30;54596;43.216;27.904;2022-11-11T03:47:09;8.06;92.85
67799;SHT30;54596;43.216;27.904;2022-11-11T03:49:34;8.10;92.29
67799;SHT30;54596;43.216;27.904;2022-11-11T03:51:59;8.16;92.35
67799;SHT30;54596;43.216;27.904;2022-11-11T03:54:25;8.14;91.98
67799;SHT30;54596;43.216;27.904;2022-11-11T03:56:50;8.14;92.06
67799;SHT30;54596;43.216;27.904;2022-11-11T03:59:16;8.07;92.41
67799;SHT30;54596;43.216;27.904;2022-11-11T04:01:41;7.96;92.46
67799;SHT30;54596;43.216;27.904;2022-11-11T04:04:25;8.00;92.28
67799;SHT30;54596;43.216;27.904;2022-11-11T04:07:10;8.04;92.22
67799;SHT30;54596;43.216;27.904;2022-11-11T04:09:54;8.03;91.82
67799;SHT30;54596;43.216;27.904;2022-11-11T04:12:40;7.92;91.87
67799;SHT30;54596;43.216;27.904;2022-11-11T04:15:25;7.89;92.12
67799;SHT30;54596;43.216;27.904;2022-11-11T04:18:08;7.83;92.39
67799;SHT30;54596;43.216;27.904;2022-11-11T04:20:34;7.79;92.42
67799;SHT30;54596;43.216;27.904;2022-11-11T04:23:18;7.74;92.43
67799;SHT30;54596;43.216;27.904;2022-11-11T04:25:43;7.72;92.55
67799;SHT30;54596;43.216;27.904;2022-11-11T04:28:15;7.74;92.37
67799;SHT30;54596;43.216;27.904;2022-11-11T04:31:00;7.76;92.21
67799;SHT30;54596;43.216;27.904;2022-11-11T04:33:25;7.75;92.01
67799;SHT30;54596;43.216;27.904;2022-11-11T04:35:51;7.74;92.12
67799;SHT30;54596;43.216;27.904;2022-11-11T04:38:16;7.71;92.17
67799;SHT30;54596;43.216;27.904;2022-11-11T04:41:00;7.74;92.32
67799;SHT30;54596;43.216;27.904;2022-11-11T04:43:31;7.79;92.50
67799;SHT30;54596;43.216;27.904;2022-11-11T04:46:17;7.86;92.44
67799;SHT30;54596;43.216;27.904;2022-11-11T04:48:42;7.93;92.34
67799;SHT30;54596;43.216;27.904;2022-11-11T04:51:08;7.99;92.31
67799;SHT30;54596;43.216;27.904;2022-11-11T04:53:33;8.06;92.47
67799;SHT30;54596;43.216;27.904;2022-11-11T04:55:59;8.17;92.77
67799;SHT30;54596;43.216;27.904;2022-11-11T04:58:43;8.24;92.29
67799;SHT30;54596;43.216;27.904;2022-11-11T05:01:08;8.26;92.00
67799;SHT30;54596;43.216;27.904;2022-11-11T05:03:33;8.28;91.57
67799;SHT30;54596;43.216;27.904;2022-11-11T05:05:59;8.30;91.45
67799;SHT30;54596;43.216;27.904;2022-11-11T05:08:48;8.38;91.22
67799;SHT30;54596;43.216;27.904;2022-11-11T05:11:30;8.47;90.96
67799;SHT30;54596;43.216;27.904;2022-11-11T05:14:04;8.58;90.61
67799;SHT30;54596;43.216;27.904;2022-11-11T05:16:55;8.68;90.10
67799;SHT30;54596;43.216;27.904;2022-11-11T05:19:41;8.71;89.95
67799;SHT30;54596;43.216;27.904;2022-11-11T05:22:40;8.77;89.99
67799;SHT30;54596;43.216;27.904;2022-11-11T05:25:07;8.71;90.09
67799;SHT30;54596;43.216;27.904;2022-11-11T05:27:55;8.71;89.83
67799;SHT30;54596;43.216;27.904;2022-11-11T05:30:22;8.76;89.89
67799;SHT30;54596;43.216;27.904;2022-11-11T05:32:48;8.84;89.64
67799;SHT30;54596;43.216;27.904;2022-11-11T05:35:14;8.89;89.18
67799;SHT30;54596;43.216;27.904;2022-11-11T05:37:40;8.93;88.99
67799;SHT30;54596;43.216;27.904;2022-11-11T05:40:07;8.96;88.81
67799;SHT30;54596;43.216;27.904;2022-11-11T05:42:32;9.03;88.60
67799;SHT30;54596;43.216;27.904;2022-11-11T05:44:58;9.03;88.48
67799;SHT30;54596;43.216;27.904;2022-11-11T05:47:23;9.01;88.56
67799;SHT30;54596;43.216;27.904;2022-11-11T05:49:49;9.08;88.38
67799;SHT30;54596;43.216;27.904;2022-11-11T05:52:15;9.16;88.45
67799;SHT30;54596;43.216;27.904;2022-11-11T05:54:41;9.30;88.05
67799;SHT30;54596;43.216;27.904;2022-11-11T05:57:07;9.44;87.68
67799;SHT30;54596;43.216;27.904;2022-11-11T05:59:33;9.51;87.38
67799;SHT30;54596;43.216;27.904;2022-11-11T06:01:58;9.70;87.14
67799;SHT30;54596;43.216;27.904;2022-11-11T06:04:24;9.91;86.49
67799;SHT30;54596;43.216;27.904;2022-11-11T06:06:50;10.15;85.86
67799;SHT30;54596;43.216;27.904;2022-11-11T06:09:15;10.21;85.44
67799;SHT30;54596;43.216;27.904;2022-11-11T06:11:41;10.28;85.16
67799;SHT30;54596;43.216;27.904;2022-11-11T06:14:06;10.32;84.94
67799;SHT30;54596;43.216;27.904;2022-11-11T06:16:32;10.34;85.06
67799;SHT30;54596;43.216;27.904;2022-11-11T06:18:58;10.18;85.62
67799;SHT30;54596;43.216;27.904;2022-11-11T06:21:25;10.11;85.84
67799;SHT30;54596;43.216;27.904;2022-11-11T06:23:50;10.14;85.68
67799;SHT30;54596;43.216;27.904;2022-11-11T06:26:16;10.10;85.73
67799;SHT30;54596;43.216;27.904;2022-11-11T06:28:47;10.04;85.71
67799;SHT30;54596;43.216;27.904;2022-11-11T06:31:18;10.11;85.48
67799;SHT30;54596;43.216;27.904;2022-11-11T06:33:44;10.10;85.67
67799;SHT30;54596;43.216;27.904;2022-11-11T06:36:12;10.08;85.91
67799;SHT30;54596;43.216;27.904;2022-11-11T06:38:39;10.11;85.87
67799;SHT30;54596;43.216;27.904;2022-11-11T06:41:05;10.08;86.15
67799;SHT30;54596;43.216;27.904;2022-11-11T06:43:31;10.01;86.62
67799;SHT30;54596;43.216;27.904;2022-11-11T06:45:57;10.07;86.74
67799;SHT30;54596;43.216;27.904;2022-11-11T06:48:23;10.14;86.62
67799;SHT30;54596;43.216;27.904;2022-11-11T06:50:49;10.15;86.76
67799;SHT30;54596;43.216;27.904;2022-11-11T06:53:17;10.21;86.57
67799;SHT30;54596;43.216;27.904;2022-11-11T06:55:42;10.31;86.49
67799;SHT30;54596;43.216;27.904;2022-11-11T06:58:17;10.31;86.37
67799;SHT30;54596;43.216;27.904;2022-11-11T07:00:45;10.46;86.09
67799;SHT30;54596;43.216;27.904;2022-11-11T07:03:12;10.45;86.25
67799;SHT30;54596;43.216;27.904;2022-11-11T07:05:39;10.48;85.92
67799;SHT30;54596;43.216;27.904;2022-11-11T07:08:07;10.50;85.99
67799;SHT30;54596;43.216;27.904;2022-11-11T07:10:34;10.55;85.89
67799;SHT30;54596;43.216;27.904;2022-11-11T07:13:00;10.62;86.03
67799;SHT30;54596;43.216;27.904;2022-11-11T07:15:25;10.67;85.99
67799;SHT30;54596;43.216;27.904;2022-11-11T07:17:51;10.73;85.94
67799;SHT30;54596;43.216;27.904;2022-11-11T07:20:16;10.72;86.09
67799;SHT30;54596;43.216;27.904;2022-11-11T07:22:42;10.80;86.06
67799;SHT30;54596;43.216;27.904;2022-11-11T07:25:08;10.86;86.29
67799;SHT30;54596;43.216;27.904;2022-11-11T07:27:37;10.94;86.05
67799;SHT30;54596;43.216;27.904;2022-11-11T07:30:04;11.12;85.89
67799;SHT30;54596;43.216;27.904;2022-11-11T07:32:30;11.38;85.31
67799;SHT30;54596;43.216;27.904;2022-11-11T07:34:56;11.54;84.79
67799;SHT30;54596;43.216;27.904;2022-11-11T07:37:21;11.79;84.10
67799;SHT30;54596;43.216;27.904;2022-11-11T07:39:47;12.25;82.93
67799;SHT30;54596;43.216;27.904;2022-11-11T07:42:12;12.81;81.23
67799;SHT30;54596;43.216;27.904;2022-11-11T07:44:38;13.01;80.49
67799;SHT30;54596;43.216;27.904;2022-11-11T07:47:03;13.05;80.13
67799;SHT30;54596;43.216;27.904;2022-11-11T07:49:29;13.26;79.42
67799;SHT30;54596;43.216;27.904;2022-11-11T07:51:54;13.23;79.26
67799;SHT30;54596;43.216;27.904;2022-11-11T07:54:20;13.08;79.64
67799;SHT30;54596;43.216;27.904;2022-11-11T07:56:45;12.93;80.13
67799;SHT30;54596;43.216;27.904;2022-11-11T07:59:11;12.81;80.38
67799;SHT30;54596;43.216;27.904;2022-11-11T08:01:36;12.66;80.71
67799;SHT30;54596;43.216;27.904;2022-11-11T08:04:01;12.72;80.85
67799;SHT30;54596;43.216;27.904;2022-11-11T08:06:27;12.66;81.30
67799;SHT30;54596;43.216;27.904;2022-11-11T08:08:52;12.62;81.60
67799;SHT30;54596;43.216;27.904;2022-11-11T08:11:18;12.56;81.65
67799;SHT30;54596;43.216;27.904;2022-11-11T08:14:03;12.56;81.52
67799;SHT30;54596;43.216;27.904;2022-11-11T08:16:29;12.56;81.57
67799;SHT30;54596;43.216;27.904;2022-11-11T08:18:54;12.55;81.60
67799;SHT30;54596;43.216;27.904;2022-11-11T08:21:22;12.46;81.96
67799;SHT30;54596;43.216;27.904;2022-11-11T08:23:48;12.50;81.95
67799;SHT30;54596;43.216;27.904;2022-11-11T08:26:14;12.53;81.62
67799;SHT30;54596;43.216;27.904;2022-11-11T08:28:39;12.63;81.55
67799;SHT30;54596;43.216;27.904;2022-11-11T08:31:05;12.70;81.61
67799;SHT30;54596;43.216;27.904;2022-11-11T08:36:14;12.90;81.26
67799;SHT30;54596;43.216;27.904;2022-11-11T08:38:40;12.98;81.14
67799;SHT30;54596;43.216;27.904;2022-11-11T08:41:06;13.04;80.99
67799;SHT30;54596;43.216;27.904;2022-11-11T08:43:32;13.19;80.59
67799;SHT30;54596;43.216;27.904;2022-11-11T08:45:59;13.26;80.40
67799;SHT30;54596;43.216;27.904;2022-11-11T08:48:24;13.34;80.39
67799;SHT30;54596;43.216;27.904;2022-11-11T08:50:51;13.45;80.19
67799;SHT30;54596;43.216;27.904;2022-11-11T08:53:17;13.50;80.20
67799;SHT30;54596;43.216;27.904;2022-11-11T08:55:43;13.53;80.07
67799;SHT30;54596;43.216;27.904;2022-11-11T08:58:09;13.56;80.03
67799;SHT30;54596;43.216;27.904;2022-11-11T09:00:35;13.52;80.58
67799;SHT30;54596;43.216;27.904;2022-11-11T09:03:01;13.55;80.84
67799;SHT30;54596;43.216;27.904;2022-11-11T09:05:27;13.53;80.67
67799;SHT30;54596;43.216;27.904;2022-11-11T09:07:53;13.49;80.55
67799;SHT30;54596;43.216;27.904;2022-11-11T09:10:18;13.49;80.34
67799;SHT30;54596;43.216;27.904;2022-11-11T09:12:43;13.48;80.52
67799;SHT30;54596;43.216;27.904;2022-11-11T09:15:09;13.50;80.24
67799;SHT30;54596;43.216;27.904;2022-11-11T09:17:34;13.62;80.45
67799;SHT30;54596;43.216;27.904;2022-11-11T09:20:00;13.65;80.55
67799;SHT30;54596;43.216;27.904;2022-11-11T09:22:26;13.62;80.02
67799;SHT30;54596;43.216;27.904;2022-11-11T09:24:51;13.57;79.90
67799;SHT30;54596;43.216;27.904;2022-11-11T09:27:17;13.52;80.02
67799;SHT30;54596;43.216;27.904;2022-11-11T09:29:42;13.50;80.01
67799;SHT30;54596;43.216;27.904;2022-11-11T09:32:08;13.56;79.94
67799;SHT30;54596;43.216;27.904;2022-11-11T09:34:33;13.53;80.21
67799;SHT30;54596;43.216;27.904;2022-11-11T09:36:58;13.52;80.04
67799;SHT30;54596;43.216;27.904;2022-11-11T09:39:24;13.46;80.18
67799;SHT30;54596;43.216;27.904;2022-11-11T09:42:02;13.42;80.56
67799;SHT30;54596;43.216;27.904;2022-11-11T09:50:05;13.57;80.49
67799;SHT30;54596;43.216;27.904;2022-11-11T09:52:39;13.62;80.27
67799;SHT30;54596;43.216;27.904;2022-11-11T09:58:20;13.57;80.65
67799;SHT30;54596;43.216;27.904;2022-11-11T10:00:57;13.66;80.37
67799;SHT30;54596;43.216;27.904;2022-11-11T10:03:24;13.71;80.13
67799;SHT30;54596;43.216;27.904;2022-11-11T10:10:49;13.74;79.76
67799;SHT30;54596;43.216;27.904;2022-11-11T10:15:59;13.80;79.87
67799;SHT30;54596;43.216;27.904;2022-11-11T10:21:31;13.90;79.66
67799;SHT30;54596;43.216;27.904;2022-11-11T10:24:00;13.93;79.52
67799;SHT30;54596;43.216;27.904;2022-11-11T10:26:40;14.04;79.48
67799;SHT30;54596;43.216;27.904;2022-11-11T10:29:20;14.08;79.27
67799;SHT30;54596;43.216;27.904;2022-11-11T10:31:57;14.14;79.15
67799;SHT30;54596;43.216;27.904;2022-11-11T10:34:31;14.15;79.17
67799;SHT30;54596;43.216;27.904;2022-11-11T10:36:57;14.19;79.19
67799;SHT30;54596;43.216;27.904;2022-11-11T10:39:29;14.24;78.95
67799;SHT30;54596;43.216;27.904;2022-11-11T10:41:58;14.28;78.55
67799;SHT30;54596;43.216;27.904;2022-11-11T10:44:28;14.22;78.29
67799;SHT30;54596;43.216;27.904;2022-11-11T10:47:00;14.18;78.25
67799;SHT30;54596;43.216;27.904;2022-11-11T10:49:31;14.15;78.49
67799;SHT30;54596;43.216;27.904;2022-11-11T10:52:09;14.15;78.74
67799;SHT30;54596;43.216;27.904;2022-11-11T10:54:45;14.18;78.36
67799;SHT30;54596;43.216;27.904;2022-11-11T10:57:27;14.18;78.28
67799;SHT30;54596;43.216;27.904;2022-11-11T11:00:04;14.12;76.17
67799;SHT30;54596;43.216;27.904;2022-11-11T11:03:01;14.08;75.79
67799;SHT30;54596;43.216;27.904;2022-11-11T11:05:37;14.07;75.82
67799;SHT30;54596;43.216;27.904;2022-11-11T11:08:09;14.07;76.06
67799;SHT30;54596;43.216;27.904;2022-11-11T11:10:41;14.08;76.06
67799;SHT30;54596;43.216;27.904;2022-11-11T11:15:42;14.00;76.04
67799;SHT30;54596;43.216;27.904;2022-11-11T11:18:15;14.01;76.20
67799;SHT30;54596;43.216;27.904;2022-11-11T11:20:57;13.98;76.32
67799;SHT30;54596;43.216;27.904;2022-11-11T11:23:40;13.98;76.05
67799;SHT30;54596;43.216;27.904;2022-11-11T11:26:08;14.01;76.26
67799;SHT30;54596;43.216;27.904;2022-11-11T11:28:34;14.02;76.13
67799;SHT30;54596;43.216;27.904;2022-11-11T11:31:05;14.00;76.05
67799;SHT30;54596;43.216;27.904;2022-11-11T11:33:52;13.98;76.06
67799;SHT30;54596;43.216;27.904;2022-11-11T11:36:18;13.98;76.00
67799;SHT30;54596;43.216;27.904;2022-11-11T11:38:46;13.94;76.05
67799;SHT30;54596;43.216;27.904;2022-11-11T11:41:12;13.94;75.78
67799;SHT30;54596;43.216;27.904;2022-11-11T11:43:39;13.85;75.86
67799;SHT30;54596;43.216;27.904;2022-11-11T11:51:31;13.83;76.17
67799;SHT30;54596;43.216;27.904;2022-11-11T11:57:02;13.78;76.17
67799;SHT30;54596;43.216;27.904;2022-11-11T12:07:10;13.85;76.17
67799;SHT30;54596;43.216;27.904;2022-11-11T12:12:31;13.88;76.08
67799;SHT30;54596;43.216;27.904;2022-11-11T12:15:08;13.87;75.84
67799;SHT30;54596;43.216;27.904;2022-11-11T12:17:51;13.90;75.89
67799;SHT30;54596;43.216;27.904;2022-11-11T12:20:26;13.83;75.83
67799;SHT30;54596;43.216;27.904;2022-11-11T12:22:59;13.83;75.95
67799;SHT30;54596;43.216;27.904;2022-11-11T12:25:38;13.84;75.90
67799;SHT30;54596;43.216;27.904;2022-11-11T12:28:26;13.77;76.10
67799;SHT30;54596;43.216;27.904;2022-11-11T12:34:05;13.76;76.10
67799;SHT30;54596;43.216;27.904;2022-11-11T12:37:03;13.73;76.17
67799;SHT30;54596;43.216;27.904;2022-11-11T12:39:49;13.67;75.75
67799;SHT30;54596;43.216;27.904;2022-11-11T12:45:18;13.62;75.91
67799;SHT30;54596;43.216;27.904;2022-11-11T12:56:54;13.38;76.47
67799;SHT30;54596;43.216;27.904;2022-11-11T12:59:37;13.31;76.81
67799;SHT30;54596;43.216;27.904;2022-11-11T13:10:33;13.22;77.27
67799;SHT30;54596;43.216;27.904;2022-11-11T13:15:47;13.08;77.63
67799;SHT30;54596;43.216;27.904;2022-11-11T13:21:06;13.08;77.85
67799;SHT30;54596;43.216;27.904;2022-11-11T13:23:35;13.10;77.83
67799;SHT30;54596;43.216;27.904;2022-11-11T13:26:04;13.04;77.83
67799;SHT30;54596;43.216;27.904;2022-11-11T13:28:43;13.07;77.84
67799;SHT30;54596;43.216;27.904;2022-11-11T13:33:51;12.88;77.92
67799;SHT30;54596;43.216;27.904;2022-11-11T13:36:22;12.88;78.12
67799;SHT30;54596;43.216;27.904;2022-11-11T13:38:57;12.83;78.23
67799;SHT30;54596;43.216;27.904;2022-11-11T13:41:28;12.81;78.33
67799;SHT30;54596;43.216;27.904;2022-11-11T13:43:58;12.81;78.31
67799;SHT30;54596;43.216;27.904;2022-11-11T13:46:42;12.80;78.29
67799;SHT30;54596;43.216;27.904;2022-11-11T13:49:20;12.79;78.45
67799;SHT30;54596;43.216;27.904;2022-11-11T13:52:03;12.75;78.60
67799;SHT30;54596;43.216;27.904;2022-11-11T13:54:40;12.72;78.87
67799;SHT30;54596;43.216;27.904;2022-11-11T13:57:16;12.75;78.90
67799;SHT30;54596;43.216;27.904;2022-11-11T13:59:59;12.69;79.13
67799;SHT30;54596;43.216;27.904;2022-11-11T14:02:35;12.63;79.43
67799;SHT30;54596;43.216;27.904;2022-11-11T14:07:50;12.62;79.74
67799;SHT30;54596;43.216;27.904;2022-11-11T14:12:54;12.64;79.99
67799;SHT30;54596;43.216;27.904;2022-11-11T14:15:42;12.63;80.12
67799;SHT30;54596;43.216;27.904;2022-11-11T14:20:40;12.62;80.43
67799;SHT30;54596;43.216;27.904;2022-11-11T14:25:51;12.62;81.04
67799;SHT30;54596;43.216;27.904;2022-11-11T14:31:31;12.64;81.54
67799;SHT30;54596;43.216;27.904;2022-11-11T14:41:54;12.35;83.72
67799;SHT30;54596;43.216;27.904;2022-11-11T14:49:48;12.24;84.68
67799;SHT30;54596;43.216;27.904;2022-11-11T14:52:43;12.24;84.88
67799;SHT30;54596;43.216;27.904;2022-11-11T14:57:48;12.20;85.74
67799;SHT30;54596;43.216;27.904;2022-11-11T15:00:48;12.11;86.12
67799;SHT30;54596;43.216;27.904;2022-11-11T15:03:51;12.11;86.69
67799;SHT30;54596;43.216;27.904;2022-11-11T15:06:27;12.14;86.74
67799;SHT30;54596;43.216;27.904;2022-11-11T15:12:04;12.02;87.21
67799;SHT30;54596;43.216;27.904;2022-11-11T15:15:09;11.95;88.08
67799;SHT30;54596;43.216;27.904;2022-11-11T15:34:49;11.81;88.96
67799;SHT30;54596;43.216;27.904;2022-11-11T15:37:02;11.80;89.03
67799;SHT30;54596;43.216;27.904;2022-11-11T15:42:12;11.84;89.19
67799;SHT30;54596;43.216;27.904;2022-11-11T15:44:42;11.87;89.05
67799;SHT30;54596;43.216;27.904;2022-11-11T15:47:11;11.87;89.01
67799;SHT30;54596;43.216;27.904;2022-11-11T15:49:44;11.83;88.96
67799;SHT30;54596;43.216;27.904;2022-11-11T15:52:31;11.87;89.56
67799;SHT30;54596;43.216;27.904;2022-11-11T15:54:58;11.90;89.74
67799;SHT30;54596;43.216;27.904;2022-11-11T15:57:33;11.90;89.79
67799;SHT30;54596;43.216;27.904;2022-11-11T16:00:01;11.87;89.73
67799;SHT30;54596;43.216;27.904;2022-11-11T16:02:33;11.86;89.83
67799;SHT30;54596;43.216;27.904;2022-11-11T16:05:05;11.86;89.47
67799;SHT30;54596;43.216;27.904;2022-11-11T16:07:38;11.81;89.49
67799;SHT30;54596;43.216;27.904;2022-11-11T16:10:13;11.86;89.73
67799;SHT30;54596;43.216;27.904;2022-11-11T16:12:50;11.83;89.16
67799;SHT30;54596;43.216;27.904;2022-11-11T16:15:21;11.83;89.62
67799;SHT30;54596;43.216;27.904;2022-11-11T16:17:48;11.86;89.97
67799;SHT30;54596;43.216;27.904;2022-11-11T16:20:19;11.91;90.04
67799;SHT30;54596;43.216;27.904;2022-11-11T16:22:47;11.93;89.66
67799;SHT30;54596;43.216;27.904;2022-11-11T16:25:19;11.86;89.68
67799;SHT30;54596;43.216;27.904;2022-11-11T16:27:45;11.81;89.42
67799;SHT30;54596;43.216;27.904;2022-11-11T16:30:29;11.84;90.53
67799;SHT30;54596;43.216;27.904;2022-11-11T16:32:55;11.84;90.16
67799;SHT30;54596;43.216;27.904;2022-11-11T16:35:34;11.81;90.57
67799;SHT30;54596;43.216;27.904;2022-11-11T16:38:00;11.83;90.49
67799;SHT30;54596;43.216;27.904;2022-11-11T16:43:16;11.90;90.73
67799;SHT30;54596;43.216;27.904;2022-11-11T16:45:48;11.84;90.71
67799;SHT30;54596;43.216;27.904;2022-11-11T16:48:46;11.79;90.41
67799;SHT30;54596;43.216;27.904;2022-11-11T16:53:54;11.76;90.20
67799;SHT30;54596;43.216;27.904;2022-11-11T16:56:30;11.74;90.41
67799;SHT30;54596;43.216;27.904;2022-11-11T16:59:04;11.77;90.50
67799;SHT30;54596;43.216;27.904;2022-11-11T17:01:42;11.73;90.53
67799;SHT30;54596;43.216;27.904;2022-11-11T17:04:08;11.69;90.60
67799;SHT30;54596;43.216;27.904;2022-11-11T17:11:53;11.70;90.78
67799;SHT30;54596;43.216;27.904;2022-11-11T17:14:19;11.73;90.72
67799;SHT30;54596;43.216;27.904;2022-11-11T17:16:44;11.74;90.83
67799;SHT30;54596;43.216;27.904;2022-11-11T17:19:10;11.70;90.58
67799;SHT30;54596;43.216;27.904;2022-11-11T17:21:35;11.69;90.58
67799;SHT30;54596;43.216;27.904;2022-11-11T17:24:01;11.69;90.71
67799;SHT30;54596;43.216;27.904;2022-11-11T17:26:26;11.65;90.55
67799;SHT30;54596;43.216;27.904;2022-11-11T17:28:54;11.59;90.82
67799;SHT30;54596;43.216;27.904;2022-11-11T17:31:20;11.56;90.57
67799;SHT30;54596;43.216;27.904;2022-11-11T17:33:48;11.54;90.87
67799;SHT30;54596;43.216;27.904;2022-11-11T17:36:14;11.62;91.55
67799;SHT30;54596;43.216;27.904;2022-11-11T17:38:39;11.61;90.87
67799;SHT30;54596;43.216;27.904;2022-11-11T17:41:05;11.63;90.86
67799;SHT30;54596;43.216;27.904;2022-11-11T17:43:31;11.59;90.46
67799;SHT30;54596;43.216;27.904;2022-11-11T17:45:59;11.62;90.51
67799;SHT30;54596;43.216;27.904;2022-11-11T17:48:25;11.59;90.58
67799;SHT30;54596;43.216;27.904;2022-11-11T17:50:51;11.58;90.41
67799;SHT30;54596;43.216;27.904;2022-11-11T17:53:16;11.62;90.69
67799;SHT30;54596;43.216;27.904;2022-11-11T17:55:42;11.58;90.34
67799;SHT30;54596;43.216;27.904;2022-11-11T17:58:10;11.59;90.61
67799;SHT30;54596;43.216;27.904;2022-11-11T18:00:35;11.59;90.32
67799;SHT30;54596;43.216;27.904;2022-11-11T18:03:01;11.59;90.50
67799;SHT30;54596;43.216;27.904;2022-11-11T18:05:26;11.58;90.62
67799;SHT30;54596;43.216;27.904;2022-11-11T18:07:52;11.61;90.41
67799;SHT30;54596;43.216;27.904;2022-11-11T18:10:17;11.58;90.39
67799;SHT30;54596;43.216;27.904;2022-11-11T18:12:43;11.55;90.68
67799;SHT30;54596;43.216;27.904;2022-11-11T18:15:09;11.55;90.47